Copake, New York
Current Conditions -  °F | °C
As of 7:29 PM on Sunday 21 Dec 2014 (Local Time) from KPSF Reporting Station
Light Snow Light Snow  
Wind Chill: 29°   Ceiling: 2900
Heat Index: 29°   Visibility: 2mi
Dew Point: 27°   Wind: 0mph
Humidity: 92%   Direction: NA
Pressure: 30.28"   Gusts: NA
Location:  42.1°N, 73.55°W
Report Text: KPSF 220029Z AUTO 00000KT 2SM -SN BR FEW005 OVC029 M02/M03 A3028 RMK AO2 P0001 T10171028
Loading
Personal Weather Stations






























Interactive Weather Map New forecast layout! Learn more

10-Day Weather Forecast

Advertisements
Track Severe Weather on mobile